createdAt,value
2022-08-08T00:01:00.499Z,101191.91
2022-08-08T00:03:47.586Z,101191.06
2022-08-08T00:06:28.215Z,101192.03
2022-08-08T00:09:07.755Z,101188.38
2022-08-08T00:11:46.841Z,101195.69
2022-08-08T00:14:57.319Z,101187.84
2022-08-08T00:17:58.570Z,101187.13
2022-08-08T00:20:29.797Z,101184.56
2022-08-08T00:23:00.849Z,101190.06
2022-08-08T00:25:39.043Z,101190.06
2022-08-08T00:28:33.951Z,101183.94
2022-08-08T00:32:19.977Z,101187.47
2022-08-08T00:34:17.132Z,101189.53
2022-08-08T00:36:51.510Z,101180.63
2022-08-08T00:40:43.804Z,101194.91
2022-08-08T00:42:43.990Z,101184.41
2022-08-08T00:45:38.357Z,101188.06
2022-08-08T00:48:42.687Z,101186.34
2022-08-08T00:51:53.215Z,101182.91
2022-08-08T00:54:45.675Z,101184.88
2022-08-08T00:57:48.539Z,101187.44
2022-08-08T01:00:27.980Z,101186.69
2022-08-08T01:03:59.552Z,101182.50
2022-08-08T01:06:27.637Z,101178.97
2022-08-08T01:09:35.054Z,101179.81
2022-08-08T01:12:30.350Z,101180.91
2022-08-08T01:15:43.557Z,101169.44
2022-08-08T01:18:53.655Z,101174.78
2022-08-08T01:22:03.920Z,101178.47
2022-08-08T01:24:40.221Z,101175.16
2022-08-08T01:27:46.322Z,101168.81
2022-08-08T01:30:42.568Z,101163.66
2022-08-08T01:33:33.552Z,101161.97
2022-08-08T01:36:38.272Z,101160.22
2022-08-08T01:39:23.897Z,101162.06
2022-08-08T01:42:01.862Z,101162.06
2022-08-08T01:44:41.625Z,101164.97
2022-08-08T01:48:14.589Z,101156.06
2022-08-08T01:50:20.064Z,101153.50
2022-08-08T01:55:14.870Z,101162.41
2022-08-08T01:56:29.131Z,101159.84
2022-08-08T01:59:07.874Z,101161.78
2022-08-08T02:02:00.017Z,101159.84
2022-08-08T02:04:36.953Z,101160.09
2022-08-08T02:07:09.125Z,101158.34
2022-08-08T02:10:02.660Z,101154.81
2022-08-08T02:12:42.826Z,101153.09
2022-08-08T02:15:16.656Z,101152.34
2022-08-08T02:17:50.445Z,101149.81
2022-08-08T02:21:01.688Z,101148.94
2022-08-08T02:23:21.649Z,101145.41
2022-08-08T02:25:58.946Z,101152.47
2022-08-08T02:28:48.333Z,101146.50
2022-08-08T02:31:58.281Z,101153.69
2022-08-08T02:35:07.833Z,101146.63
2022-08-08T02:37:53.050Z,101146.00
2022-08-08T02:40:38.997Z,101150.47
2022-08-08T02:44:36.885Z,101138.03
2022-08-08T02:46:26.376Z,101137.19
2022-08-08T02:49:18.661Z,101136.34
2022-08-08T02:52:32.929Z,101135.50
2022-08-08T02:55:21.835Z,101142.66
2022-08-08T02:58:16.395Z,101135.59
2022-08-08T03:01:14.751Z,101141.09
2022-08-08T03:05:03.122Z,101135.81
2022-08-08T03:07:24.761Z,101137.78
2022-08-08T03:10:17.959Z,101140.44
2022-08-08T03:15:53.685Z,101134.34
2022-08-08T03:16:37.324Z,101145.06
2022-08-08T03:19:22.004Z,101141.66
2022-08-08T03:21:58.242Z,101142.59
2022-08-08T03:24:28.899Z,101138.22
2022-08-08T03:27:03.871Z,101142.59
2022-08-08T03:29:55.226Z,101148.81
2022-08-08T03:32:29.037Z,101134.56
2022-08-08T03:34:57.002Z,101142.81
2022-08-08T03:38:54.565Z,101136.50
2022-08-08T03:40:30.027Z,101138.44
2022-08-08T03:43:16.823Z,101145.00
2022-08-08T03:46:05.005Z,101140.50
2022-08-08T03:49:08.940Z,101141.56
2022-08-08T03:51:26.517Z,101137.94
2022-08-08T03:54:05.741Z,101139.66
2022-08-08T03:56:36.372Z,101138.16
2022-08-08T03:59:03.554Z,101140.72
2022-08-08T04:02:13.041Z,101148.03
2022-08-08T04:04:23.140Z,101154.47
2022-08-08T04:07:01.249Z,101145.59
2022-08-08T04:09:39.671Z,101151.88
2022-08-08T04:12:16.271Z,101154.69
2022-08-08T04:14:44.939Z,101159.09
2022-08-08T04:17:22.703Z,101158.13
2022-08-08T04:19:58.927Z,101161.75
2022-08-08T04:22:29.746Z,101160.91
2022-08-08T04:24:56.649Z,101168.13
2022-08-08T04:28:03.053Z,101165.66
2022-08-08T04:30:17.397Z,101168.34
2022-08-08T04:32:47.825Z,101160.50
2022-08-08T04:35:17.358Z,101166.72
2022-08-08T04:37:44.758Z,101180.25
2022-08-08T04:40:12.977Z,101168.69
2022-08-08T04:42:46.749Z,101179.50
2022-08-08T04:45:24.309Z,101174.13
2022-08-08T04:47:52.176Z,101184.00
2022-08-08T04:50:24.287Z,101179.00
2022-08-08T04:53:00.972Z,101185.09
2022-08-08T04:55:47.653Z,101186.91
2022-08-08T04:58:20.005Z,101181.53
2022-08-08T05:00:49.964Z,101193.38
2022-08-08T05:04:08.238Z,101189.72
2022-08-08T05:06:12.964Z,101196.91
2022-08-08T05:08:46.317Z,101197.75
2022-08-08T05:11:23.100Z,101189.81
2022-08-08T05:13:57.794Z,101196.06
2022-08-08T05:16:48.545Z,101194.63
2022-08-08T05:20:12.537Z,101196.31
2022-08-08T05:22:00.557Z,101197.22
2022-08-08T05:24:27.407Z,101198.16
2022-08-08T05:26:53.847Z,101200.84
2022-08-08T05:29:22.158Z,101204.50
2022-08-08T05:32:03.057Z,101207.19
2022-08-08T05:34:36.328Z,101203.75
2022-08-08T05:37:16.048Z,101201.06
2022-08-08T05:39:49.706Z,101211.78
2022-08-08T05:42:16.443Z,101209.22
2022-08-08T05:44:51.764Z,101218.13
2022-08-08T05:47:21.459Z,101223.47
2022-08-08T05:49:55.956Z,101218.13
2022-08-08T05:52:35.603Z,101225.19
2022-08-08T05:55:09.009Z,101225.09
2022-08-08T05:58:05.312Z,101224.13
2022-08-08T06:00:30.662Z,101233.22
2022-08-08T06:03:02.282Z,101228.75
2022-08-08T06:05:35.385Z,101234.13
2022-08-08T06:08:10.285Z,101232.28
2022-08-08T06:10:51.845Z,101232.38
2022-08-08T06:13:22.795Z,101234.97
2022-08-08T06:15:54.527Z,101232.28
2022-08-08T06:18:22.763Z,101236.69
2022-08-08T06:20:52.929Z,101238.50
2022-08-08T06:23:49.030Z,101236.69
2022-08-08T06:26:38.194Z,101237.44
2022-08-08T06:29:04.099Z,101232.94
2022-08-08T06:32:10.999Z,101239.88
2022-08-08T06:34:52.657Z,101235.41
2022-08-08T06:37:37.122Z,101237.00
2022-08-08T06:40:06.151Z,101242.38
2022-08-08T06:42:36.211Z,101245.81
2022-08-08T06:45:05.398Z,101238.75
2022-08-08T06:47:58.099Z,101243.13
2022-08-08T06:50:32.295Z,101244.84
2022-08-08T06:53:00.926Z,101237.56
2022-08-08T06:55:37.957Z,101240.97
2022-08-08T06:58:08.416Z,101230.25
2022-08-08T07:00:40.739Z,101237.22
2022-08-08T07:03:52.474Z,101248.78
2022-08-08T07:06:05.246Z,101239.69
2022-08-08T07:08:38.364Z,101249.56
2022-08-08T07:11:07.768Z,101251.25
2022-08-08T07:13:38.751Z,101252.03
2022-08-08T07:16:37.737Z,101253.72
2022-08-08T07:19:29.046Z,101254.50
2022-08-08T07:22:05.168Z,101259.59
2022-08-08T07:24:39.208Z,101263.16
2022-08-08T07:27:11.693Z,101256.81
2022-08-08T07:30:01.618Z,101254.88
2022-08-08T07:32:31.894Z,101246.81
2022-08-08T07:35:02.591Z,101257.47
2022-08-08T07:37:56.236Z,101251.97
2022-08-08T07:40:29.256Z,101251.88
2022-08-08T07:43:01.095Z,101260.78
2022-08-08T07:45:34.317Z,101250.91
2022-08-08T07:48:02.724Z,101257.88
2022-08-08T07:50:33.826Z,101256.78
2022-08-08T07:53:12.164Z,101260.22
2022-08-08T07:56:01.455Z,101258.38
2022-08-08T07:58:32.174Z,101259.16
2022-08-08T08:01:04.328Z,101260.84
2022-08-08T08:03:43.334Z,101263.41
2022-08-08T08:06:14.220Z,101265.16
2022-08-08T08:08:52.002Z,101265.03
2022-08-08T08:11:21.822Z,101279.28
2022-08-08T08:14:07.967Z,101272.00
2022-08-08T08:16:39.539Z,101270.19
2022-08-08T08:19:09.391Z,101278.13
2022-08-08T08:21:52.317Z,101269.72
2022-08-08T08:24:30.729Z,101278.63
2022-08-08T08:27:02.543Z,101276.81
2022-08-08T08:29:29.622Z,101281.09
2022-08-08T08:31:57.796Z,101281.09
2022-08-08T08:34:32.424Z,101289.88
2022-08-08T08:37:03.426Z,101289.78
2022-08-08T08:40:00.440Z,101286.97
2022-08-08T08:42:31.902Z,101283.22
2022-08-08T08:45:10.126Z,101280.41
2022-08-08T08:47:49.930Z,101287.50
2022-08-08T08:50:33.878Z,101279.34
2022-08-08T08:53:27.787Z,101280.09
2022-08-08T08:55:54.591Z,101274.59
2022-08-08T08:58:30.563Z,101280.72
2022-08-08T09:01:09.054Z,101283.28
2022-08-08T09:03:46.694Z,101276.97
2022-08-08T09:06:26.531Z,101274.16
2022-08-08T09:09:03.728Z,101275.84
2022-08-08T09:11:33.007Z,101271.25
2022-08-08T09:14:00.861Z,101270.25
2022-08-08T09:16:29.347Z,101271.97
2022-08-08T09:18:59.932Z,101269.84
2022-08-08T09:22:02.948Z,101263.63
2022-08-08T09:24:17.733Z,101269.84
2022-08-08T09:26:52.105Z,101268.84
2022-08-08T09:29:22.458Z,101275.84
2022-08-08T09:31:56.029Z,101262.28
2022-08-08T09:34:34.318Z,101266.69
2022-08-08T09:37:58.786Z,101264.75
2022-08-08T09:40:01.382Z,101252.06
2022-08-08T09:42:34.557Z,101260.97
2022-08-08T09:45:54.109Z,101260.00
2022-08-08T09:48:17.773Z,101251.84
2022-08-08T09:50:50.983Z,101255.38
2022-08-08T09:53:53.346Z,101251.72
2022-08-08T09:56:22.227Z,101254.28
2022-08-08T09:58:57.861Z,101260.38
2022-08-08T10:02:00.298Z,101269.19
2022-08-08T10:04:15.158Z,101257.47
2022-08-08T10:07:07.253Z,101260.91
2022-08-08T10:09:59.180Z,101260.78
2022-08-08T10:12:37.734Z,101245.50
2022-08-08T10:15:17.445Z,101256.25
2022-08-08T10:18:07.369Z,101260.66
2022-08-08T10:20:44.473Z,101249.69
2022-08-08T10:23:41.340Z,101246.03
2022-08-08T10:26:16.864Z,101244.94
2022-08-08T10:29:02.726Z,101251.16
2022-08-08T10:31:47.415Z,101252.75
2022-08-08T10:34:18.484Z,101248.22
2022-08-08T10:36:47.849Z,101242.75
2022-08-08T10:39:19.456Z,101246.31
2022-08-08T10:42:13.126Z,101249.84
2022-08-08T10:44:43.011Z,101244.38
2022-08-08T10:47:10.935Z,101236.31
2022-08-08T10:50:01.816Z,101245.09
2022-08-08T10:52:30.985Z,101255.72
2022-08-08T10:55:00.437Z,101236.91
2022-08-08T10:57:50.038Z,101239.47
2022-08-08T11:00:23.083Z,101229.47
2022-08-08T11:02:52.594Z,101227.50
2022-08-08T11:05:19.408Z,101234.59
2022-08-08T11:08:38.222Z,101230.19
2022-08-08T11:10:41.289Z,101233.63
2022-08-08T11:16:00.724Z,101220.19
2022-08-08T11:18:30.101Z,101226.44
2022-08-08T11:20:58.779Z,101220.06
2022-08-08T11:23:31.506Z,101223.50
2022-08-08T11:26:00.777Z,101223.38
2022-08-08T11:28:33.585Z,101223.25
2022-08-08T11:31:09.560Z,101213.38
2022-08-08T11:33:51.234Z,101214.94
2022-08-08T11:36:21.023Z,101212.16
2022-08-08T11:38:55.007Z,101214.84
2022-08-08T11:41:23.202Z,101214.69
2022-08-08T11:43:53.400Z,101204.09
2022-08-08T11:46:24.486Z,101220.06
2022-08-08T11:48:51.829Z,101208.38
2022-08-08T11:51:38.860Z,101202.84
2022-08-08T11:54:26.690Z,101201.88
2022-08-08T11:56:56.468Z,101203.72
2022-08-08T12:00:00.194Z,101198.34
2022-08-08T12:02:35.440Z,101198.22
2022-08-08T12:05:04.312Z,101196.16
2022-08-08T12:07:31.873Z,101204.09
2022-08-08T12:10:10.304Z,101198.84
2022-08-08T12:12:41.593Z,101203.22
2022-08-08T12:15:26.277Z,101197.00
2022-08-08T12:17:54.196Z,101191.63
2022-08-08T12:20:21.092Z,101195.03
2022-08-08T12:22:52.625Z,101196.78
2022-08-08T12:25:29.885Z,101188.69
2022-08-08T12:28:14.337Z,101196.56
2022-08-08T12:30:42.607Z,101189.34
2022-08-08T12:33:18.875Z,101192.88
2022-08-08T12:35:52.261Z,101193.59
2022-08-08T12:38:19.477Z,101178.44
2022-08-08T12:40:59.157Z,101183.84
2022-08-08T12:43:46.498Z,101174.91
2022-08-08T12:46:26.297Z,101181.03
2022-08-08T12:49:21.980Z,101182.75
2022-08-08T12:51:50.080Z,101180.75
2022-08-08T12:54:26.449Z,101178.06
2022-08-08T12:56:53.916Z,101173.44
2022-08-08T12:59:36.249Z,101174.28
2022-08-08T13:02:06.880Z,101173.31
2022-08-08T13:04:35.106Z,101167.94
2022-08-08T13:07:05.477Z,101170.63
2022-08-08T13:09:57.582Z,101166.13
2022-08-08T13:12:29.118Z,101174.91
2022-08-08T13:14:58.005Z,101167.69
2022-08-08T13:18:09.484Z,101159.38
2022-08-08T13:20:17.281Z,101164.75
2022-08-08T13:22:45.669Z,101161.09
2022-08-08T13:25:13.958Z,101152.91
2022-08-08T13:27:41.783Z,101167.94
2022-08-08T13:30:09.206Z,101165.25
2022-08-08T13:32:39.458Z,101164.28
2022-08-08T13:35:11.685Z,101165.97
2022-08-08T13:38:05.904Z,101165.97
2022-08-08T13:40:34.801Z,101169.50
2022-08-08T13:43:01.430Z,101158.50
2022-08-08T13:45:30.821Z,101167.44
2022-08-08T13:47:58.503Z,101162.03
2022-08-08T13:50:35.129Z,101164.63
2022-08-08T13:53:23.016Z,101153.72
2022-08-08T13:56:00.491Z,101168.78
2022-08-08T13:58:28.786Z,101155.19
2022-08-08T14:00:56.372Z,101162.31
2022-08-08T14:03:47.022Z,101156.78
2022-08-08T14:06:33.144Z,101161.31
2022-08-08T14:09:25.303Z,101165.69
2022-08-08T14:11:48.813Z,101167.44
2022-08-08T14:14:20.720Z,101162.06
2022-08-08T14:16:49.213Z,101166.44
2022-08-08T14:19:20.881Z,101159.38
2022-08-08T14:22:13.314Z,101153.97
2022-08-08T14:24:51.848Z,101153.72
2022-08-08T14:27:26.970Z,101147.47
2022-08-08T14:29:59.580Z,101142.97
2022-08-08T14:32:29.687Z,101142.09
2022-08-08T14:35:04.267Z,101147.22
2022-08-08T14:37:42.962Z,101129.97
2022-08-08T14:40:21.676Z,101129.97
2022-08-08T14:42:54.873Z,101126.31
2022-08-08T14:45:29.221Z,101127.16
2022-08-08T14:48:02.326Z,101129.00
2022-08-08T14:50:38.134Z,101133.41
2022-08-08T14:53:09.635Z,101134.13
2022-08-08T14:55:43.321Z,101132.28
2022-08-08T14:58:12.123Z,101125.81
2022-08-08T15:00:44.737Z,101135.72
2022-08-08T15:03:16.019Z,101140.84
2022-08-08T15:05:54.185Z,101130.34
2022-08-08T15:08:35.340Z,101133.88
2022-08-08T15:11:09.470Z,101135.56
2022-08-08T15:13:40.581Z,101132.88
2022-08-08T15:16:07.949Z,101130.94
2022-08-08T15:18:38.781Z,101134.34
2022-08-08T15:21:07.400Z,101129.84
2022-08-08T15:23:36.071Z,101135.06
2022-08-08T15:26:02.806Z,101126.00
2022-08-08T15:28:34.037Z,101120.38
2022-08-08T15:31:01.319Z,101127.59
2022-08-08T15:33:35.644Z,101124.53
2022-08-08T15:36:17.778Z,101127.94
2022-08-08T15:38:50.476Z,101125.41
2022-08-08T15:41:17.423Z,101128.69
2022-08-08T15:44:02.628Z,101127.69
2022-08-08T15:46:35.217Z,101124.00
2022-08-08T15:49:01.947Z,101131.09
2022-08-08T15:51:32.720Z,101121.22
2022-08-08T15:54:00.236Z,101119.16
2022-08-08T15:56:26.807Z,101129.78
2022-08-08T15:58:54.589Z,101127.94
2022-08-08T16:01:22.597Z,101119.59
2022-08-08T16:03:51.918Z,101124.13
2022-08-08T16:06:28.839Z,101130.38
2022-08-08T16:12:59.985Z,101125.72
2022-08-08T16:13:20.910Z,101122.88
2022-08-08T16:14:34.291Z,101129.00
2022-08-08T16:17:00.882Z,101121.63
2022-08-08T16:19:27.395Z,101128.72
2022-08-08T16:21:56.309Z,101126.91
2022-08-08T16:24:23.050Z,101122.50
2022-08-08T16:26:50.744Z,101129.59
2022-08-08T16:29:23.900Z,101132.16
2022-08-08T16:32:08.286Z,101130.31
2022-08-08T16:34:39.464Z,101128.22
2022-08-08T16:37:05.954Z,101127.25
2022-08-08T16:40:02.198Z,101129.81
2022-08-08T16:42:19.754Z,101130.66
2022-08-08T16:44:47.408Z,101134.78
2022-08-08T16:47:40.307Z,101130.25
2022-08-08T16:50:13.751Z,101126.59
2022-08-08T16:55:03.845Z,101129.16
2022-08-08T16:55:55.546Z,101124.50
2022-08-08T16:58:17.626Z,101121.66
2022-08-08T17:00:49.024Z,101117.97
2022-08-08T17:03:24.313Z,101117.72
2022-08-08T17:05:52.071Z,101117.72
2022-08-08T17:08:20.346Z,101113.31
2022-08-08T17:10:57.674Z,101123.09
2022-08-08T17:13:50.304Z,101115.00
2022-08-08T17:16:24.500Z,101113.16
2022-08-08T17:18:52.938Z,101118.44
2022-08-08T17:21:21.416Z,101120.88
2022-08-08T17:24:00.878Z,101116.47
2022-08-08T17:26:29.652Z,101122.72
2022-08-08T17:28:57.400Z,101121.84
2022-08-08T17:31:45.849Z,101121.00
2022-08-08T17:34:35.946Z,101127.22
2022-08-08T17:37:03.710Z,101124.53
2022-08-08T17:40:03.494Z,101124.53
2022-08-08T17:42:20.553Z,101127.13
2022-08-08T17:44:49.695Z,101128.72
2022-08-08T17:47:23.975Z,101135.06
2022-08-08T17:50:06.266Z,101126.00
2022-08-08T17:52:35.355Z,101128.72
2022-08-08T17:56:03.942Z,101139.34
2022-08-08T17:57:51.452Z,101136.78
2022-08-08T18:00:19.622Z,101142.19
2022-08-08T18:03:04.681Z,101140.34
2022-08-08T18:05:49.733Z,101146.56
2022-08-08T18:08:37.706Z,101154.50
2022-08-08T18:11:06.392Z,101143.63
2022-08-08T18:13:35.087Z,101141.63
2022-08-08T18:16:08.068Z,101147.00
2022-08-08T18:18:39.165Z,101154.25
2022-08-08T18:21:34.651Z,101159.63
2022-08-08T18:24:00.557Z,101153.41
2022-08-08T18:26:29.032Z,101156.25
2022-08-08T18:28:55.708Z,101164.19
2022-08-08T18:31:24.859Z,101169.56
2022-08-08T18:34:11.460Z,101170.41
2022-08-08T18:36:44.558Z,101170.41
2022-08-08T18:39:16.673Z,101170.41
2022-08-08T18:41:57.610Z,101164.19
2022-08-08T18:44:29.953Z,101168.56
2022-08-08T18:47:00.132Z,101177.66
2022-08-08T18:49:32.324Z,101176.81
2022-08-08T18:52:22.261Z,101184.88
2022-08-08T18:55:01.020Z,101182.34
2022-08-08T18:57:41.658Z,101177.91
2022-08-08T19:00:15.483Z,101179.63
2022-08-08T19:02:54.756Z,101188.56
2022-08-08T19:05:32.486Z,101184.16
2022-08-08T19:08:24.066Z,101178.66
2022-08-08T19:10:54.380Z,101182.34
2022-08-08T19:13:24.427Z,101177.78
2022-08-08T19:15:55.629Z,101179.34
2022-08-08T19:18:33.655Z,101187.44
2022-08-08T19:21:29.636Z,101189.41
2022-08-08T19:23:57.297Z,101196.78
2022-08-08T19:26:28.768Z,101197.91
2022-08-08T19:28:57.189Z,101202.41
2022-08-08T19:31:31.106Z,101209.91
2022-08-08T19:34:30.231Z,101205.50
2022-08-08T19:36:48.126Z,101212.75
2022-08-08T19:39:15.951Z,101213.72
2022-08-08T19:41:46.057Z,101221.91
2022-08-08T19:44:43.076Z,101221.91
2022-08-08T19:47:01.574Z,101228.41
2022-08-08T19:49:28.225Z,101219.63
2022-08-08T19:52:03.890Z,101230.41
2022-08-08T19:54:33.204Z,101227.97
2022-08-08T19:56:59.733Z,101233.50
2022-08-08T19:59:30.927Z,101232.75
2022-08-08T20:02:04.556Z,101243.66
2022-08-08T20:04:32.317Z,101240.22
2022-08-08T20:07:05.060Z,101238.53
2022-08-08T20:09:55.817Z,101247.56
2022-08-08T20:12:32.956Z,101258.34
2022-08-08T20:15:14.309Z,101254.94
2022-08-08T20:17:45.121Z,101256.88
2022-08-08T20:20:19.238Z,101256.88
2022-08-08T20:22:54.100Z,101259.72
2022-08-08T20:25:26.560Z,101256.19
2022-08-08T20:27:57.332Z,101257.28
2022-08-08T20:30:52.989Z,101259.81
2022-08-08T20:33:18.719Z,101259.97
2022-08-08T20:35:58.585Z,101251.03
2022-08-08T20:38:29.298Z,101258.25
2022-08-08T20:41:00.734Z,101264.75
2022-08-08T20:43:43.720Z,101260.34
2022-08-08T20:46:14.964Z,101258.63
2022-08-08T20:48:41.481Z,101254.22
2022-08-08T20:51:08.281Z,101252.38
2022-08-08T20:54:01.178Z,101257.91
2022-08-08T20:56:35.823Z,101268.94
2022-08-08T20:59:09.446Z,101258.16
2022-08-08T21:02:05.768Z,101257.31
2022-08-08T21:04:23.521Z,101260.97
2022-08-08T21:06:54.289Z,101256.66
2022-08-08T21:09:21.564Z,101267.53
2022-08-08T21:11:51.102Z,101264.00
2022-08-08T21:14:34.293Z,101266.69
2022-08-08T21:17:01.595Z,101268.53
2022-08-08T21:19:44.098Z,101269.53
2022-08-08T21:22:11.301Z,101267.94
2022-08-08T21:24:39.382Z,101267.94
2022-08-08T21:27:38.456Z,101267.06
2022-08-08T21:30:05.492Z,101270.75
2022-08-08T21:32:37.296Z,101283.34
2022-08-08T21:36:16.950Z,101280.78
2022-08-08T21:37:54.417Z,101280.88
2022-08-08T21:40:31.375Z,101282.63
2022-08-08T21:42:59.483Z,101280.03
2022-08-08T21:48:00.138Z,101282.88
2022-08-08T21:48:20.083Z,101291.78
2022-08-08T21:50:50.705Z,101292.78
2022-08-08T21:54:32.110Z,101294.63
2022-08-08T21:56:26.949Z,101284.81
2022-08-08T21:58:55.317Z,101287.66
2022-08-08T22:01:28.020Z,101294.88
2022-08-08T22:04:07.168Z,101286.91
2022-08-08T22:06:38.043Z,101290.44
2022-08-08T22:09:08.424Z,101295.09
2022-08-08T22:12:03.086Z,101293.25
2022-08-08T22:14:27.001Z,101287.88
2022-08-08T22:16:56.367Z,101295.09
2022-08-08T22:19:24.094Z,101300.59
2022-08-08T22:21:50.916Z,101301.47
2022-08-08T22:24:17.918Z,101306.97
2022-08-08T22:27:02.386Z,101310.50
2022-08-08T22:30:01.426Z,101310.66
2022-08-08T22:32:18.944Z,101307.94
2022-08-08T22:34:50.644Z,101306.25
2022-08-08T22:37:48.661Z,101307.34
2022-08-08T22:40:05.452Z,101307.34
2022-08-08T22:42:34.616Z,101310.88
2022-08-08T22:45:04.065Z,101304.66
2022-08-08T22:47:37.926Z,101311.88
2022-08-08T22:50:21.540Z,101316.50
2022-08-08T22:53:22.594Z,101308.56
2022-08-08T22:55:59.556Z,101320.19
2022-08-08T22:58:28.515Z,101322.97
2022-08-08T23:00:56.693Z,101320.28
2022-08-08T23:03:24.280Z,101321.28
2022-08-08T23:06:11.099Z,101327.50
2022-08-08T23:08:44.268Z,101327.66
2022-08-08T23:11:20.833Z,101333.03
2022-08-08T23:13:51.657Z,101321.41
2022-08-08T23:16:41.493Z,101323.25
2022-08-08T23:19:11.089Z,101318.81
2022-08-08T23:21:38.042Z,101322.50
2022-08-08T23:24:06.655Z,101317.34
2022-08-08T23:26:34.354Z,101329.81
2022-08-08T23:29:01.027Z,101326.28
2022-08-08T23:31:28.812Z,101329.81
2022-08-08T23:34:16.889Z,101330.94
2022-08-08T23:36:42.379Z,101332.75
2022-08-08T23:39:09.055Z,101334.72
2022-08-08T23:41:45.613Z,101327.63
2022-08-08T23:44:13.469Z,101333.13
2022-08-08T23:49:07.323Z,101321.66
2022-08-08T23:49:27.716Z,101326.13
2022-08-08T23:52:06.731Z,101322.59
2022-08-08T23:54:41.332Z,101322.59
2022-08-08T23:57:25.293Z,101320.03
